Home > Products > Valid Products > TAF

000
FTUS42 KMLB 022207 AAB
TAFVRB
TAF AMD
KVRB 022207Z 0222/0318 24008KT 3SM -RA BR FEW060 OVC100
     FM030000 19004KT P6SM FEW060 BKN120
     FM031400 21012KT P6SM FEW035 BKN100 OVC200=



000
FTUS42 KMLB 022117 AAA
TAFMCO
TAF AMD
KMCO 022117Z 0221/0318 20008KT P6SM VCSH FEW040 BKN080 OVC120
     FM022300 18004KT P6SM SCT080 OVC250
     FM031400 21012KT P6SM FEW035 BKN100 OVC250=



000
FTUS42 KMLB 022021 AAA
TAFVRB
TAF AMD
KVRB 022021Z 0220/0318 18012G18KT 3SM TSRA SCT020 BKN030CB OVC040
      TEMPO 0220/0221 1SM +TSRA BKN020CB OVC030
     FM022200 19012KT P6SM VCSH SCT030 OVC060
     FM030400 21007KT P6SM FEW035 BKN090 OVC200=



000
FTUS42 KMLB 021720
TAFMCO
TAF
KMCO 021720Z 0218/0318 22014G22KT P6SM VCSH SCT040 BKN080
      TEMPO 0218/0219 23014G29KT 3SM TSRA BKN020CB OVC040
     FM022000 23009KT P6SM VCSH SCT030 BKN070
     FM022300 23010KT P6SM VCSH SCT030 OVC060
     FM030300 19004KT P6SM FEW035 BKN090 OVC200=



000
FTUS42 KMLB 021720
TAFMLB
TAF
KMLB 021720Z 0218/0318 17012G21KT P6SM VCSH SCT040 BKN080
      TEMPO 0219/0222 3SM TSRA BKN025CB OVC040
     FM022200 21011KT P6SM VCSH SCT030 OVC060
     FM030400 22007KT P6SM FEW035 BKN090 OVC200=



000
FTUS42 KMLB 021720
TAFMCO
TAF
KMCO 021720Z 0218/0318 22014G22KT P6SM VCSH SCT040 BKN080
      TEMPO 0218/0219 23014G29KT 3SM TSRA BKN020CB OVC040
     FM022000 23009KT P6SM VCSH SCT030 BKN070
     FM022300 23010KT P6SM VCSH SCT030 OVC060
     FM030300 19004KT P6SM FEW035 BKN090 OVC200=



000
FTUS42 KMLB 021720
TAFMLB
TAF
KMLB 021720Z 0218/0318 17012G21KT P6SM VCSH SCT040 BKN080
      TEMPO 0219/0222 3SM TSRA BKN025CB OVC040
     FM022200 21011KT P6SM VCSH SCT030 OVC060
     FM030400 22007KT P6SM FEW035 BKN090 OVC200=



000
FTUS42 KMLB 021720
TAFDAB
TAF
KDAB 021720Z 0218/0318 21012KT P6SM VCSH SCT040 BKN080
     FM022200 22010KT P6SM VCSH SCT030 OVC060
     FM030200 19007KT P6SM FEW035 BKN090 OVC200=



000
FTUS42 KMLB 021720
TAFVRB
TAF
KVRB 021720Z 0218/0318 18012G18KT P6SM VCSH SCT040 BKN080
      TEMPO 0219/0222 3SM TSRA BKN025CB BKN040
     FM022200 19012KT P6SM VCSH SCT030 OVC060
     FM030400 21007KT P6SM FEW035 BKN090 OVC200=



000
FTUS42 KMLB 021720
TAFSFB
TAF
KSFB 021720Z 0218/0318 21011KT P6SM VCSH SCT030 BKN080
      TEMPO 0218/0221 4SM TSRA BKN035CB BKN070
     FM022100 22008KT P6SM VCTS SCT030CB OVC060
     FM030400 19006KT P6SM FEW035 BKN090 OVC200=



000
FTUS42 KMLB 021720
TAFVRB
TAF
KVRB 021720Z 0218/0318 18012G18KT P6SM VCSH SCT040 BKN080
      TEMPO 0219/0222 3SM TSRA BKN025CB BKN040
     FM022200 19012KT P6SM VCSH SCT030 OVC060
     FM030400 21007KT P6SM FEW035 BKN090 OVC200=



000
FTUS42 KMLB 021720
TAFSFB
TAF
KSFB 021720Z 0218/0318 21011KT P6SM VCSH SCT030 BKN080
      TEMPO 0218/0221 4SM TSRA BKN035CB BKN070
     FM022100 22008KT P6SM VCTS SCT030CB OVC060
     FM030400 19006KT P6SM FEW035 BKN090 OVC200=



000
FTUS42 KMLB 021720
TAFDAB
TAF
KDAB 021720Z 0218/0318 21012KT P6SM VCSH SCT040 BKN080
     FM022200 22010KT P6SM VCSH SCT030 OVC060
     FM030200 19007KT P6SM FEW035 BKN090 OVC200=



000
FTUS42 KMLB 021704 AAB
TAFMCO
TAF AMD
KMCO 021704Z 0217/0312 22014G22KT P6SM VCSH SCT040 BKN080
      TEMPO 0217/0219 23014G29KT 3SM TSRA BKN020CB OVC040
     FM022000 23009KT P6SM VCSH SCT030 BKN070
     FM022300 23010KT P6SM VCSH SCT030 OVC060
     FM030200 19004KT P6SM FEW035 BKN090 OVC200=



000
FTUS42 KMLB 021704 AAB
TAFMCO
TAF AMD
KMCO 021704Z 0217/0312 22014G22KT P6SM VCSH SCT040 BKN080
      TEMPO 0217/0219 23014G29KT 3SM TSRA BKN020CB OVC040
     FM022000 23009KT P6SM VCSH SCT030 BKN070
     FM022300 23010KT P6SM VCSH SCT030 OVC060
     FM030200 19004KT P6SM FEW035 BKN090 OVC200=



000
FTUS42 KMLB 021501 AAA
TAFMCO
TAF AMD
KMCO 021501Z 0215/0312 21011KT P6SM VCSH SCT030 BKN150
     FM021600 22014G22KT P6SM VCSH SCT040 BKN080
      TEMPO 0216/0220 3SM TSRA BKN020CB OVC040
     FM022200 23010KT P6SM SCT030 OVC060
     FM030200 19004KT P6SM FEW035 BKN090 OVC200=



000
FTUS42 KMLB 021418 AAA
TAFSFB
TAF AMD
KSFB 021418Z 0214/0312 22011KT P6SM VCSH SCT030 BKN150
      TEMPO 0214/0218 22012G18KT 4SM SHRA BKN025 OVC040
     FM022000 24008KT P6SM VCTS SCT030CB OVC060
     FM030100 19004KT P6SM FEW035 BKN090 OVC200=



000
FTUS42 KMLB 021418 AAA
TAFSFB
TAF AMD
KSFB 021418Z 0214/0312 22011KT P6SM VCSH SCT030 BKN150
      TEMPO 0214/0218 22012G18KT 4SM SHRA BKN025 OVC040
     FM022000 24008KT P6SM VCTS SCT030CB OVC060
     FM030100 19004KT P6SM FEW035 BKN090 OVC200=



000
FTUS42 KMLB 021131
TAFSFB
TAF
KSFB 021131Z 0212/0312 18008KT P6SM BKN150
     FM021400 22011KT P6SM VCSH SCT030 BKN150
     FM021600 23015G23KT P6SM VCSH SCT040 BKN080
      TEMPO 0216/0220 3SM TSRA BKN020CB OVC040
     FM022200 24008KT P6SM SCT030 OVC060
     FM030200 19004KT P6SM FEW035 BKN090 OVC200=



000
FTUS42 KMLB 021131
TAFMLB
TAF
KMLB 021131Z 0212/0312 16007KT P6SM VCSH SCT050 OVC150
     FM021400 18010KT P6SM VCSH SCT030 BKN150
     FM021600 23012G18KT P6SM VCSH SCT040 BKN080
      TEMPO 0216/0220 3SM TSRA BKN020CB OVC040
     FM022200 23007KT P6SM SCT030 OVC060
     FM030200 20005KT P6SM FEW035 BKN090 OVC200=



000
FTUS42 KMLB 021131
TAFDAB
TAF
KDAB 021131Z 0212/0312 17007KT P6SM FEW040 SCT080 BKN150
     FM021400 22012KT P6SM VCSH SCT030 BKN150
     FM021600 23013G20KT P6SM VCSH SCT040 BKN080
      TEMPO 0216/0220 3SM TSRA BKN020CB OVC040
     FM022200 23007KT P6SM SCT030 OVC060
     FM030200 19004KT P6SM FEW035 BKN090 OVC200=



000
FTUS42 KMLB 021131
TAFVRB
TAF
KVRB 021131Z 0212/0312 16006KT P6SM VCSH SCT050 OVC150
     FM021400 18010KT P6SM SCT030 BKN150
     FM021600 18012G18KT P6SM VCSH SCT040 BKN080
     FM022200 20007KT P6SM VCSH SCT030 OVC060
     FM030200 19004KT P6SM FEW035 BKN090 OVC200=



000
FTUS42 KMLB 021131
TAFMCO
TAF
KMCO 021131Z 0212/0312 16006KT P6SM FEW050 SCT120 BKN150
     FM021400 21011KT P6SM VCSH SCT030 BKN150
     FM021600 22014G22KT P6SM VCSH SCT040 BKN080
      TEMPO 0216/0220 3SM TSRA BKN020CB OVC040
     FM022200 23010KT P6SM SCT030 OVC060
     FM030200 19004KT P6SM FEW035 BKN090 OVC200=



000
FTUS42 KMLB 021131
TAFVRB
TAF
KVRB 021131Z 0212/0312 16006KT P6SM VCSH SCT050 OVC150
     FM021400 18010KT P6SM SCT030 BKN150
     FM021600 18012G18KT P6SM VCSH SCT040 BKN080
     FM022200 20007KT P6SM VCSH SCT030 OVC060
     FM030200 19004KT P6SM FEW035 BKN090 OVC200=



000
FTUS42 KMLB 021131
TAFSFB
TAF
KSFB 021131Z 0212/0312 18008KT P6SM BKN150
     FM021400 22011KT P6SM VCSH SCT030 BKN150
     FM021600 23015G23KT P6SM VCSH SCT040 BKN080
      TEMPO 0216/0220 3SM TSRA BKN020CB OVC040
     FM022200 24008KT P6SM SCT030 OVC060
     FM030200 19004KT P6SM FEW035 BKN090 OVC200=



000
FTUS42 KMLB 021131
TAFDAB
TAF
KDAB 021131Z 0212/0312 17007KT P6SM FEW040 SCT080 BKN150
     FM021400 22012KT P6SM VCSH SCT030 BKN150
     FM021600 23013G20KT P6SM VCSH SCT040 BKN080
      TEMPO 0216/0220 3SM TSRA BKN020CB OVC040
     FM022200 23007KT P6SM SCT030 OVC060
     FM030200 19004KT P6SM FEW035 BKN090 OVC200=



000
FTUS42 KMLB 021131
TAFMLB
TAF
KMLB 021131Z 0212/0312 16007KT P6SM VCSH SCT050 OVC150
     FM021400 18010KT P6SM VCSH SCT030 BKN150
     FM021600 23012G18KT P6SM VCSH SCT040 BKN080
      TEMPO 0216/0220 3SM TSRA BKN020CB OVC040
     FM022200 23007KT P6SM SCT030 OVC060
     FM030200 20005KT P6SM FEW035 BKN090 OVC200=



000
FTUS42 KMLB 021131
TAFMCO
TAF
KMCO 021131Z 0212/0312 16006KT P6SM FEW050 SCT120 BKN150
     FM021400 21011KT P6SM VCSH SCT030 BKN150
     FM021600 22014G22KT P6SM VCSH SCT040 BKN080
      TEMPO 0216/0220 3SM TSRA BKN020CB OVC040
     FM022200 23010KT P6SM SCT030 OVC060
     FM030200 19004KT P6SM FEW035 BKN090 OVC200=



000
FTUS42 KMLB 020858 AAA
TAFMCO
TAF AMD
KMCO 020858Z 0209/0306 17006KT P6SM BKN140 OVC200
     FM021400 22011KT P6SM VCSH SCT030 BKN120
     FM021600 23014G22KT P6SM VCSH SCT040 BKN080
      TEMPO 0216/0220 3SM TSRA BKN020CB OVC040
     FM022200 23010KT P6SM SCT030 OVC060
     FM030200 19004KT P6SM FEW035 BKN090 OVC200=



000
FTUS42 KMLB 020858 AAA
TAFMCO
TAF AMD
KMCO 020858Z 0209/0306 17006KT P6SM BKN140 OVC200
     FM021400 22011KT P6SM VCSH SCT030 BKN120
     FM021600 23014G22KT P6SM VCSH SCT040 BKN080
      TEMPO 0216/0220 3SM TSRA BKN020CB OVC040
     FM022200 23010KT P6SM SCT030 OVC060
     FM030200 19004KT P6SM FEW035 BKN090 OVC200=



000
FTUS42 KMLB 020520
TAFDAB
TAF
KDAB 020520Z 0206/0306 18007KT P6SM BKN080 OVC110
     FM021400 22012KT P6SM VCSH SCT030 BKN120
     FM021600 23013G20KT P6SM VCSH SCT040 BKN080
      TEMPO 0216/0220 3SM TSRA BKN020CB OVC040
     FM022200 23007KT P6SM SCT030 OVC060
     FM030200 19004KT P6SM FEW035 BKN090 OVC200=



000
FTUS42 KMLB 020520
TAFMCO
TAF
KMCO 020520Z 0206/0306 19004KT P6SM VCSH SCT035 BKN090 OVC200
      TEMPO 0206/0207 -RA
     FM021400 22011KT P6SM VCSH SCT030 BKN120
     FM021600 23014G22KT P6SM VCSH SCT040 BKN080
      TEMPO 0216/0220 3SM TSRA BKN020CB OVC040
     FM022200 23010KT P6SM SCT030 OVC060
     FM030200 19004KT P6SM FEW035 BKN090 OVC200=



000
FTUS42 KMLB 020520
TAFMLB
TAF
KMLB 020520Z 0206/0306 18006KT P6SM VCSH FEW025 SCT110 BKN200
     FM021400 21010KT P6SM VCSH SCT030 BKN120
     FM021600 23012G18KT P6SM VCSH SCT040 BKN080
      TEMPO 0216/0220 3SM TSRA BKN020CB OVC040
     FM022200 23007KT P6SM SCT030 OVC060
     FM030200 20005KT P6SM FEW035 BKN090 OVC200=



000
FTUS42 KMLB 020520
TAFVRB
TAF
KVRB 020520Z 0206/0306 15005KT P6SM SCT045 SCT060 BKN200
     FM021400 20010KT P6SM SCT030 BKN120
     FM021600 22012G18KT P6SM VCSH SCT040 BKN080
     FM022200 23007KT P6SM VCSH SCT030 OVC060
     FM030200 19004KT P6SM FEW035 BKN090 OVC200=



000
FTUS42 KMLB 020520
TAFSFB
TAF
KSFB 020520Z 0206/0306 19007KT P6SM VCSH FEW035 BKN090 OVC200
     FM021400 22011KT P6SM VCSH SCT030 BKN120
     FM021600 23015G23KT P6SM VCSH SCT040 BKN080
      TEMPO 0216/0220 3SM TSRA BKN020CB OVC040
     FM022200 24008KT P6SM SCT030 OVC060
     FM030200 19004KT P6SM FEW035 BKN090 OVC200=



000
FTUS42 KMLB 020308 AAA
TAFMCO
TAF AMD
KMCO 020308Z 0203/0224 19004KT P6SM FEW030 BKN080 OVC200
     FM021400 22010KT P6SM SCT030 BKN120
     FM021600 23014G22KT P6SM VCSH SCT040 BKN080
      TEMPO 0216/0220 3SM TSRA BKN020CB OVC040
     FM022200 23010KT P6SM SCT030 OVC060=



000
FTUS42 KMLB 020308 AAA
TAFMCO
TAF AMD
KMCO 020308Z 0203/0224 19004KT P6SM FEW030 BKN080 OVC200
     FM021400 22010KT P6SM SCT030 BKN120
     FM021600 23014G22KT P6SM VCSH SCT040 BKN080
      TEMPO 0216/0220 3SM TSRA BKN020CB OVC040
     FM022200 23010KT P6SM SCT030 OVC060=



000
FTUS42 KMLB 012320
TAFMLB
TAF
KMLB 012320Z 0200/0224 20005KT P6SM VCSH BKN012 OVC050
      TEMPO 0200/0202 5SM -RA BR BKN010
     FM020300 20004KT P6SM SCT040 OVC100
     FM021400 21010KT P6SM SCT030 BKN120
     FM021600 23012G18KT P6SM VCSH SCT040 BKN080
      TEMPO 0216/0220 3SM TSRA BKN020CB OVC040
     FM022200 23007KT P6SM SCT030 OVC060=



000
FTUS42 KMLB 012320
TAFSFB
TAF
KSFB 012320Z 0200/0224 21012KT P6SM SCT025 BKN080 OVC120
     FM021400 22011KT P6SM SCT030 BKN120
     FM021600 23015G23KT P6SM VCSH SCT040 BKN080
      TEMPO 0216/0220 3SM TSRA BKN020CB OVC040
     FM022200 24008KT P6SM SCT030 OVC060=



000
FTUS42 KMLB 012320
TAFDAB
TAF
KDAB 012320Z 0200/0224 20004KT P6SM SCT040 BKN060 OVC120
     FM021400 22012KT P6SM SCT030 BKN120
     FM021600 23013G20KT P6SM VCSH SCT040 BKN080
      TEMPO 0216/0220 3SM TSRA BKN020CB OVC040
     FM022200 23007KT P6SM SCT030 OVC060=



000
FTUS42 KMLB 012320
TAFSFB
TAF
KSFB 012320Z 0200/0224 21012KT P6SM SCT025 BKN080 OVC120
     FM021400 22011KT P6SM SCT030 BKN120
     FM021600 23015G23KT P6SM VCSH SCT040 BKN080
      TEMPO 0216/0220 3SM TSRA BKN020CB OVC040
     FM022200 24008KT P6SM SCT030 OVC060=



000
FTUS42 KMLB 012320
TAFVRB
TAF
KVRB 012320Z 0200/0224 20004KT P6SM SCT050 BKN080 OVC100
      TEMPO 0200/0202 5SM -RA BR BKN030 OVC050
     FM020300 19004KT P6SM SCT040 OVC100
     FM021400 20010KT P6SM SCT030 BKN120
     FM021600 22012G18KT P6SM VCSH SCT040 BKN080
     FM022200 23007KT P6SM SCT030 OVC060=



000
FTUS42 KMLB 012320
TAFMCO
TAF
KMCO 012320Z 0200/0224 19004KT P6SM FEW030 SCT060 OVC080
     FM021400 22010KT P6SM SCT030 BKN120
     FM021600 23014G22KT P6SM VCSH SCT040 BKN080
      TEMPO 0216/0220 3SM TSRA BKN020CB OVC040
     FM022200 23010KT P6SM SCT030 OVC060=



000
FTUS42 KMLB 012320
TAFDAB
TAF
KDAB 012320Z 0200/0224 20004KT P6SM SCT040 BKN060 OVC120
     FM021400 22012KT P6SM SCT030 BKN120
     FM021600 23013G20KT P6SM VCSH SCT040 BKN080
      TEMPO 0216/0220 3SM TSRA BKN020CB OVC040
     FM022200 23007KT P6SM SCT030 OVC060=



000
FTUS42 KMLB 012320
TAFMLB
TAF
KMLB 012320Z 0200/0224 20005KT P6SM VCSH BKN012 OVC050
      TEMPO 0200/0202 5SM -RA BR BKN010
     FM020300 20004KT P6SM SCT040 OVC100
     FM021400 21010KT P6SM SCT030 BKN120
     FM021600 23012G18KT P6SM VCSH SCT040 BKN080
      TEMPO 0216/0220 3SM TSRA BKN020CB OVC040
     FM022200 23007KT P6SM SCT030 OVC060=



000
FTUS42 KMLB 012320
TAFMCO
TAF
KMCO 012320Z 0200/0224 19004KT P6SM FEW030 SCT060 OVC080
     FM021400 22010KT P6SM SCT030 BKN120
     FM021600 23014G22KT P6SM VCSH SCT040 BKN080
      TEMPO 0216/0220 3SM TSRA BKN020CB OVC040
     FM022200 23010KT P6SM SCT030 OVC060=



000
FTUS42 KMLB 012320
TAFVRB
TAF
KVRB 012320Z 0200/0224 20004KT P6SM SCT050 BKN080 OVC100
      TEMPO 0200/0202 5SM -RA BR BKN030 OVC050
     FM020300 19004KT P6SM SCT040 OVC100
     FM021400 20010KT P6SM SCT030 BKN120
     FM021600 22012G18KT P6SM VCSH SCT040 BKN080
     FM022200 23007KT P6SM SCT030 OVC060=



000
FTUS42 KMLB 012207 AAB
TAFDAB
TAF AMD
KDAB 012207Z 0122/0218 22005KT 5SM -RA BR FEW012 BKN030 OVC080
      TEMPO 0122/0124 3SM RA BKN010 OVC020
     FM020000 20004KT P6SM FEW025 BKN150 BKN250
     FM021400 23014G21KT P6SM SCT030 BKN060=



000
FTUS42 KMLB 012123 AAB
TAFMLB
TAF AMD
KMLB 012123Z 0121/0218 28010KT P6SM VCSH FEW030 BKN080 OVC120
      TEMPO 0121/0124 3SM SHRA BKN020 OVC040
     FM020000 21005KT P6SM VCSH FEW025 SCT100 OVC250
      TEMPO 0200/0202 5SM -RA BKN025 OVC050
     FM020400 19004KT P6SM SCT050 OVC120=



000
FTUS42 KMLB 012054 AAB
TAFMCO
TAF AMD
KMCO 012054Z 0121/0218 20010KT 5SM RA BR FEW025 BKN040 OVC060
     FM012300 22008KT P6SM SCT020 BKN050 OVC100
     FM021400 22012KT P6SM SCT040 BKN120=



000
FTUS42 KMLB 012054 AAB
TAFMCO
TAF AMD
KMCO 012054Z 0121/0218 20010KT 5SM RA BR FEW025 BKN040 OVC060
     FM012300 22008KT P6SM SCT020 BKN050 OVC100
     FM021400 22012KT P6SM SCT040 BKN120=



000
FTUS42 KMLB 012039 AAA
TAFDAB
TAF AMD
KDAB 012039Z 0121/0218 22011G18KT P6SM VCSH SCT035 SCT050 BKN100
      TEMPO 0121/0122 VRB15G25KT 2SM TSRA BKN015CB OVC030
     FM020000 20006KT P6SM FEW025 BKN150 BKN250=



000
FTUS42 KMLB 011901 AAA
TAFSFB
TAF AMD
KSFB 011901Z 0119/0218 22010KT P6SM VCSH FEW015 BKN040 OVC080
      TEMPO 0119/0122 3SM SHRA BKN015 OVC030
     FM012200 21008KT P6SM VCSH SCT020 BKN035 OVC060
     FM020100 20005KT P6SM FEW015 BKN040 OVC080
     FM021400 22013KT P6SM SCT040 BKN120=



000
FTUS42 KMLB 011901 AAA
TAFSFB
TAF AMD
KSFB 011901Z 0119/0218 22010KT P6SM VCSH FEW015 BKN040 OVC080
      TEMPO 0119/0122 3SM SHRA BKN015 OVC030
     FM012200 21008KT P6SM VCSH SCT020 BKN035 OVC060
     FM020100 20005KT P6SM FEW015 BKN040 OVC080
     FM021400 22013KT P6SM SCT040 BKN120=



000
FTUS42 KMLB 011858 AAA
TAFMCO
TAF AMD
KMCO 011858Z 0119/0218 24011KT 5SM SHRA FEW006 BKN030 OVC060
      TEMPO 0119/0121 VRB15G25KT 2SM TSRA SCT006 BKN015CB OVC030
     FM012100 22008KT P6SM VCSH SCT020 BKN035 OVC060
     FM020000 20005KT P6SM FEW015 BKN040 OVC080
     FM021400 22012KT P6SM SCT040 BKN120=



000
FTUS42 KMLB 011733
TAFMLB
TAF
KMLB 011733Z 0118/0218 20011G18KT P6SM VCSH SCT030 SCT060 BKN100
      TEMPO 0118/0120 VRB20G30KT 3SM TSRA BKN025CB BKN035
     FM020000 20006KT P6SM VCSH FEW025 BKN150 BKN250=



000
FTUS42 KMLB 011733
TAFMCO
TAF
KMCO 011733Z 0118/0218 21012G17KT P6SM VCSH SCT030 SCT060 BKN250
      TEMPO 0118/0119 VRB15G25KT 3SM TSRA BKN030CB BKN060
     FM020000 20006KT P6SM FEW025 BKN150 BKN250=



000
FTUS42 KMLB 011733
TAFSFB
TAF
KSFB 011733Z 0118/0218 22014G18KT P6SM VCSH SCT030 SCT060 BKN120
      TEMPO 0118/0119 VRB15G25KT 3SM TSRA BKN030CB BKN060
     FM020000 22007KT P6SM FEW025 BKN150 BKN250=



000
FTUS42 KMLB 011733
TAFVRB
TAF
KVRB 011733Z 0118/0218 20011G18KT P6SM VCSH SCT030 SCT060 BKN100
      TEMPO 0118/0120 VRB20G30KT 3SM TSRA BKN025CB BKN035
     FM020000 20006KT P6SM VCSH FEW025 BKN150 BKN250=



000
FTUS42 KMLB 011733
TAFDAB
TAF
KDAB 011733Z 0118/0218 22011G18KT P6SM VCSH SCT035 SCT050 BKN100
      TEMPO 0118/0120 VRB25G30KT 4SM TSRA BKN035CB BKN050
     FM020000 20006KT P6SM FEW025 BKN150 BKN250=



000
FTUS42 KMLB 011733
TAFSFB
TAF
KSFB 011733Z 0118/0218 22014G18KT P6SM VCSH SCT030 SCT060 BKN120
      TEMPO 0118/0119 VRB15G25KT 3SM TSRA BKN030CB BKN060
     FM020000 22007KT P6SM FEW025 BKN150 BKN250=



000
FTUS42 KMLB 011733
TAFMCO
TAF
KMCO 011733Z 0118/0218 21012G17KT P6SM VCSH SCT030 SCT060 BKN250
      TEMPO 0118/0119 VRB15G25KT 3SM TSRA BKN030CB BKN060
     FM020000 20006KT P6SM FEW025 BKN150 BKN250=



000
FTUS42 KMLB 011733
TAFVRB
TAF
KVRB 011733Z 0118/0218 20011G18KT P6SM VCSH SCT030 SCT060 BKN100
      TEMPO 0118/0120 VRB20G30KT 3SM TSRA BKN025CB BKN035
     FM020000 20006KT P6SM VCSH FEW025 BKN150 BKN250=



000
FTUS42 KMLB 011733
TAFDAB
TAF
KDAB 011733Z 0118/0218 22011G18KT P6SM VCSH SCT035 SCT050 BKN100
      TEMPO 0118/0120 VRB25G30KT 4SM TSRA BKN035CB BKN050
     FM020000 20006KT P6SM FEW025 BKN150 BKN250=



000
FTUS42 KMLB 011733
TAFMLB
TAF
KMLB 011733Z 0118/0218 20011G18KT P6SM VCSH SCT030 SCT060 BKN100
      TEMPO 0118/0120 VRB20G30KT 3SM TSRA BKN025CB BKN035
     FM020000 20006KT P6SM VCSH FEW025 BKN150 BKN250=



000
FTUS42 KMLB 011639 AAA
TAFSFB
TAF AMD
KSFB 011639Z 0117/0212 22014G18KT P6SM VCSH SCT030 SCT060 BKN120
      TEMPO 0117/0119 VRB18G35KT 3SM TSRA BKN030CB BKN060
     FM020000 22007KT P6SM FEW025 BKN150 BKN250=



000
FTUS42 KMLB 011628 AAB
TAFMCO
TAF AMD
KMCO 011628Z 0116/0212 21012G17KT P6SM VCSH SCT030 SCT060 BKN250
      TEMPO 0116/0118 VRB17G35KT 3SM TSRA BKN030CB BKN060
     FM020000 20006KT P6SM FEW025 BKN150 BKN250=



000
FTUS42 KMLB 011455 AAA
TAFMCO
TAF AMD
KMCO 011455Z 0115/0212 20008KT P6SM SCT030 BKN100 BKN250
     FM011600 22014G18KT P6SM VCTS SCT030CB OVC120
      TEMPO 0117/0120 25016G30KT 4SM TSRA BKN035CB BKN060
     FM020000 20006KT P6SM FEW025 BKN150 BKN250=



000
FTUS42 KMLB 011455 AAA
TAFMCO
TAF AMD
KMCO 011455Z 0115/0212 20008KT P6SM SCT030 BKN100 BKN250
     FM011600 22014G18KT P6SM VCTS SCT030CB OVC120
      TEMPO 0117/0120 25016G30KT 4SM TSRA BKN035CB BKN060
     FM020000 20006KT P6SM FEW025 BKN150 BKN250=



000
FTUS42 KMLB 011134
TAFMCO
TAF
KMCO 011134Z 0112/0212 19008KT P6SM VCSH SCT035 BKN080 OVC110
     FM011600 22014G20KT P6SM VCTS SCT030CB OVC120
      TEMPO 0118/0121 4SM TSRA BKN025CB BKN035
     FM020000 20006KT P6SM FEW025 BKN150 BKN250=



000
FTUS42 KMLB 011134
TAFDAB
TAF
KDAB 011134Z 0112/0212 19006KT P6SM SCT030 BKN080 OVC110
     FM011500 21012G17KT P6SM VCSH SCT020 BKN120
     FM011800 22010G15KT P6SM VCTS SCT030CB BKN060 BKN150
      TEMPO 0120/0123 4SM TSRA BKN025CB BKN035
     FM020000 20006KT P6SM FEW025 BKN150 BKN250=



000
FTUS42 KMLB 011134
TAFVRB
TAF
KVRB 011134Z 0112/0212 17009KT P6SM VCSH SCT030 BKN070 OVC110
     FM011800 22012G18KT P6SM VCTS SCT030CB BKN060 BKN150
      TEMPO 0121/0124 4SM TSRA BKN025CB BKN035
     FM020000 20006KT P6SM VCSH FEW025 BKN150 BKN250=



000
FTUS42 KMLB 011134
TAFSFB
TAF
KSFB 011134Z 0112/0212 19006KT P6SM VCSH SCT035 BKN080 OVC100
     FM011600 22014G20KT P6SM VCTS SCT030CB BKN120
      TEMPO 0118/0121 4SM TSRA BKN025CB BKN035
     FM020000 22007KT P6SM FEW025 BKN150 BKN250=



000
FTUS42 KMLB 011134
TAFMCO
TAF
KMCO 011134Z 0112/0212 19008KT P6SM VCSH SCT035 BKN080 OVC110
     FM011600 22014G20KT P6SM VCTS SCT030CB OVC120
      TEMPO 0118/0121 4SM TSRA BKN025CB BKN035
     FM020000 20006KT P6SM FEW025 BKN150 BKN250=



000
FTUS42 KMLB 011134
TAFSFB
TAF
KSFB 011134Z 0112/0212 19006KT P6SM VCSH SCT035 BKN080 OVC100
     FM011600 22014G20KT P6SM VCTS SCT030CB BKN120
      TEMPO 0118/0121 4SM TSRA BKN025CB BKN035
     FM020000 22007KT P6SM FEW025 BKN150 BKN250=



000
FTUS42 KMLB 011134
TAFMLB
TAF
KMLB 011134Z 0112/0212 19011KT P6SM VCSH SCT060 OVC110
     FM011800 22012G18KT P6SM VCTS SCT030CB BKN060 BKN150
      TEMPO 0120/0123 4SM TSRA BKN025CB BKN035
     FM020000 20006KT P6SM VCSH FEW025 BKN150 BKN250=



000
FTUS42 KMLB 011134
TAFVRB
TAF
KVRB 011134Z 0112/0212 17009KT P6SM VCSH SCT030 BKN070 OVC110
     FM011800 22012G18KT P6SM VCTS SCT030CB BKN060 BKN150
      TEMPO 0121/0124 4SM TSRA BKN025CB BKN035
     FM020000 20006KT P6SM VCSH FEW025 BKN150 BKN250=



000
FTUS42 KMLB 011134
TAFDAB
TAF
KDAB 011134Z 0112/0212 19006KT P6SM SCT030 BKN080 OVC110
     FM011500 21012G17KT P6SM VCSH SCT020 BKN120
     FM011800 22010G15KT P6SM VCTS SCT030CB BKN060 BKN150
      TEMPO 0120/0123 4SM TSRA BKN025CB BKN035
     FM020000 20006KT P6SM FEW025 BKN150 BKN250=



000
FTUS42 KMLB 011134
TAFMLB
TAF
KMLB 011134Z 0112/0212 19011KT P6SM VCSH SCT060 OVC110
     FM011800 22012G18KT P6SM VCTS SCT030CB BKN060 BKN150
      TEMPO 0120/0123 4SM TSRA BKN025CB BKN035
     FM020000 20006KT P6SM VCSH FEW025 BKN150 BKN250=



000
FTUS42 KMLB 010907 AAA
TAFVRB
TAF AMD
KVRB 010907Z 0109/0206 23007KT P6SM VCSH FEW040 SCT070 BKN120
      TEMPO 0109/0111 VRB10G20KT 4SM SHRA FEW010 BKN020 BKN035
     FM011500 19010KT P6SM VCSH SCT020 BKN120
     FM011800 22012G18KT P6SM VCTS SCT030CB BKN060 BKN150
     FM020000 20006KT P6SM VCSH FEW025 BKN150 BKN250=



000
FTUS42 KMLB 010907 AAA
TAFVRB
TAF AMD
KVRB 010907Z 0109/0206 23007KT P6SM VCSH FEW040 SCT070 BKN120
      TEMPO 0109/0111 VRB10G20KT 4SM SHRA FEW010 BKN020 BKN035
     FM011500 19010KT P6SM VCSH SCT020 BKN120
     FM011800 22012G18KT P6SM VCTS SCT030CB BKN060 BKN150
     FM020000 20006KT P6SM VCSH FEW025 BKN150 BKN250=



000
FTUS42 KMLB 010856 AAA
TAFMCO
TAF AMD
KMCO 010856Z 0109/0206 19006KT P6SM BKN090 OVC250
     FM011500 22014G20KT P6SM VCTS SCT030CB BKN120
     FM020000 20006KT P6SM FEW025 BKN150 BKN250=



000
FTUS42 KMLB 010520
TAFMLB
TAF
KMLB 010520Z 0106/0206 22006KT P6SM SCT030 BKN090 BKN250
     FM011400 20011G16KT P6SM VCSH SCT020 BKN120
     FM011800 22012G18KT P6SM VCTS SCT030CB BKN060 BKN150
     FM020000 20006KT P6SM VCSH FEW025 BKN150 BKN250=



000
FTUS42 KMLB 010520
TAFDAB
TAF
KDAB 010520Z 0106/0206 19006KT P6SM FEW040 BKN060 OVC080
     FM011400 21012G17KT P6SM VCSH SCT020 BKN120
      TEMPO 0116/0118 -SHRA SCT009 BKN035
     FM011800 22010G15KT P6SM VCTS SCT030CB BKN060 BKN150
     FM020000 20006KT P6SM FEW025 BKN150 BKN250=



000
FTUS42 KMLB 010520
TAFSFB
TAF
KSFB 010520Z 0106/0206 18007KT P6SM BKN090 BKN250
     FM011500 22014G20KT P6SM VCTS SCT030CB BKN120
     FM020000 22007KT P6SM FEW025 BKN150 BKN250=



000
FTUS42 KMLB 010520
TAFVRB
TAF
KVRB 010520Z 0106/0206 22006KT P6SM FEW040 SCT090 BKN250
     FM011500 19010KT P6SM VCSH SCT020 BKN120
     FM011800 22012G18KT P6SM VCTS SCT030CB BKN060 BKN150
     FM020000 20006KT P6SM VCSH FEW025 BKN150 BKN250=



000
FTUS42 KMLB 010520
TAFMCO
TAF
KMCO 010520Z 0106/0206 19007KT P6SM BKN090 OVC250
     FM011500 22014G20KT P6SM VCTS SCT030CB BKN120
     FM020000 20006KT P6SM FEW025 BKN150 BKN250=



000
FTUS42 KMLB 010259 AAA
TAFMCO
TAF AMD
KMCO 010259Z 0103/0124 19004KT P6SM FEW035 SCT090 BKN150
     FM011500 22014G20KT P6SM VCTS SCT030CB BKN120=



000
FTUS42 KMLB 312343
TAFVRB
TAF
KVRB 312343Z 0100/0124 18008KT P6SM FEW040 BKN150 BKN250
     FM011500 19010KT P6SM VCSH SCT020 BKN120
     FM011800 22012G18KT P6SM VCTS SCT030CB BKN060 BKN150=



000
FTUS42 KMLB 312343
TAFSFB
TAF
KSFB 312343Z 0100/0124 21006KT P6SM VCSH FEW050
     FM010200 19004KT P6SM SCT100 BKN250
     FM011500 22014G20KT P6SM VCTS SCT030CB BKN120=



000
FTUS42 KMLB 312343
TAFDAB
TAF
KDAB 312343Z 0100/0124 19006KT P6SM FEW023 SCT150 BKN250
     FM011400 21012G17KT P6SM VCSH SCT020 BKN120
     FM011800 22010G15KT P6SM VCTS SCT030CB BKN060 BKN150=



000
FTUS42 KMLB 312343
TAFMCO
TAF
KMCO 312343Z 0100/0124 19005KT P6SM VCSH FEW035 SCT140 SCT250
      TEMPO 0100/0101 25015G25KT SCT025 BKN050
     FM010200 19004KT P6SM SCT100 BKN250
     FM011500 22014G20KT P6SM VCTS SCT030CB BKN120=



000
FTUS42 KMLB 312343
TAFMLB
TAF
KMLB 312343Z 0100/0124 19006KT P6SM SCT120 BKN250
     FM011400 20011G16KT P6SM VCSH SCT020 BKN120
     FM011800 22012G18KT P6SM VCTS SCT030CB BKN060 BKN150=



000
FTUS42 KMLB 312104 AAA
TAFMCO
TAF AMD
KMCO 312104Z 3121/0118 21009KT P6SM VCSH FEW025 SCT070 BKN100
     FM010000 19005KT P6SM FEW025 SCT150 BKN250
     FM011500 21011KT P6SM VCTS SCT030CB BKN120=



000
FTUS42 KMLB 312104 AAA
TAFMCO
TAF AMD
KMCO 312104Z 3121/0118 21009KT P6SM VCSH FEW025 SCT070 BKN100
     FM010000 19005KT P6SM FEW025 SCT150 BKN250
     FM011500 21011KT P6SM VCTS SCT030CB BKN120=



000
FTUS42 KMLB 311843 AAA
TAFVRB
TAF AMD
KVRB 311843Z 3119/0118 22012KT P6SM VCTS SCT040CB BKN070 BKN150
      TEMPO 3119/3121 5SM TSRA BKN030CB OVC050
     FM010000 22005KT P6SM FEW030 SCT150 BKN250
     FM011500 19010KT P6SM VCSH SCT020 BKN120=



000
FTUS42 KMLB 311736
TAFSFB
TAF
KSFB 311736Z 3118/0118 21011KT P6SM VCTS SCT040CB BKN060 BKN250
     FM010000 20005KT P6SM FEW025 SCT150 BKN250
     FM011500 18010KT P6SM VCTS SCT030CB BKN120=



000
FTUS42 KMLB 311736
TAFDAB
TAF
KDAB 311736Z 3118/0118 21011KT P6SM VCTS SCT040CB SCT060 BKN150
      TEMPO 3118/3119 25026G30KT 5SM TSRA BKN030CB OVC050
     FM010000 19005KT P6SM FEW030 SCT150 BKN250
     FM011400 18009KT P6SM VCSH SCT020 BKN120=



000
FTUS42 KMLB 311736
TAFMCO
TAF
KMCO 311736Z 3118/0118 21011KT P6SM VCTS SCT035CB BKN060 BKN250
     FM010000 21006KT P6SM FEW025 SCT150 BKN250
     FM011500 19011KT P6SM VCTS SCT030CB BKN120=



000
FTUS42 KMLB 311736
TAFMLB
TAF
KMLB 311736Z 3118/0118 19011KT P6SM VCTS SCT035CB SCT070 BKN150
      TEMPO 3119/3121 26026G30KT 5SM TSRA BKN030CB OVC050
     FM010000 21006KT P6SM FEW030 SCT150 BKN250
     FM011400 19011KT P6SM VCSH SCT020 BKN120=



000
FTUS42 KMLB 311736
TAFVRB
TAF
KVRB 311736Z 3118/0118 20011KT P6SM SCT040 BKN150
     FM311900 21012KT P6SM VCTS SCT040CB BKN070 BKN150
      TEMPO 3120/3122 5SM TSRA BKN030CB OVC050
     FM010000 22005KT P6SM FEW030 SCT150 BKN250
     FM011500 19010KT P6SM VCSH SCT020 BKN120=



000
FTUS42 KMLB 311736
TAFMCO
TAF
KMCO 311736Z 3118/0118 21011KT P6SM VCTS SCT035CB BKN060 BKN250
     FM010000 21006KT P6SM FEW025 SCT150 BKN250
     FM011500 19011KT P6SM VCTS SCT030CB BKN120=



000
FTUS42 KMLB 311736
TAFDAB
TAF
KDAB 311736Z 3118/0118 21011KT P6SM VCTS SCT040CB SCT060 BKN150
      TEMPO 3118/3119 25026G30KT 5SM TSRA BKN030CB OVC050
     FM010000 19005KT P6SM FEW030 SCT150 BKN250
     FM011400 18009KT P6SM VCSH SCT020 BKN120=



000
FTUS42 KMLB 311736
TAFSFB
TAF
KSFB 311736Z 3118/0118 21011KT P6SM VCTS SCT040CB BKN060 BKN250
     FM010000 20005KT P6SM FEW025 SCT150 BKN250
     FM011500 18010KT P6SM VCTS SCT030CB BKN120=



000
FTUS42 KMLB 311736
TAFVRB
TAF
KVRB 311736Z 3118/0118 20011KT P6SM SCT040 BKN150
     FM311900 21012KT P6SM VCTS SCT040CB BKN070 BKN150
      TEMPO 3120/3122 5SM TSRA BKN030CB OVC050
     FM010000 22005KT P6SM FEW030 SCT150 BKN250
     FM011500 19010KT P6SM VCSH SCT020 BKN120=



000
FTUS42 KMLB 311736
TAFMLB
TAF
KMLB 311736Z 3118/0118 19011KT P6SM VCTS SCT035CB SCT070 BKN150
      TEMPO 3119/3121 26026G30KT 5SM TSRA BKN030CB OVC050
     FM010000 21006KT P6SM FEW030 SCT150 BKN250
     FM011400 19011KT P6SM VCSH SCT020 BKN120=



000
FTUS42 KMLB 311717 AAA
TAFSFB
TAF AMD
KSFB 311717Z 3117/0112 23011KT P6SM VCTS SCT040CB BKN120 BKN250
      TEMPO 3117/3119 23017G30KT 3SM TSRA BKN035CB
     FM010000 21006KT P6SM VCSH FEW025 BKN150 BKN250=



000
FTUS42 KMLB 311642 AAB
TAFMCO
TAF AMD
KMCO 311642Z 3117/0112 22012KT P6SM VCTS FEW025 SCT040CB BKN120
      TEMPO 3117/3119 25014G30KT 3SM TSRA BKN035CB
     FM010000 21006KT P6SM VCSH FEW025 BKN150 BKN250=



000
FTUS42 KMLB 311511 AAA
TAFDAB
TAF AMD
KDAB 311511Z 3115/0112 22008KT P6SM VCTS SCT025CB BKN035 BKN150
      TEMPO 3115/3118 3SM TSRA BKN035CB
     FM010000 21006KT P6SM VCSH FEW025 BKN150 BKN250=



000
FTUS42 KMLB 311504 AAA
TAFMCO
TAF AMD
KMCO 311504Z 3115/0112 22009KT P6SM SCT025 BKN250
     FM311700 23012KT P6SM VCTS SCT040CB BKN120 BKN250
      TEMPO 3117/3119 3SM TSRA BKN035CB
     FM010000 21006KT P6SM VCSH FEW025 BKN150 BKN250=



000
FTUS42 KMLB 311120
TAFMLB
TAF
KMLB 311120Z 3112/0112 19005KT P6SM BKN250
     FM311400 22010KT P6SM SCT020 SCT120 SCT250
     FM311800 23010KT P6SM VCTS SCT040CB BKN070 BKN120
      TEMPO 3119/3121 3SM TSRA BKN035CB
     FM010000 19006KT P6SM VCSH FEW025 BKN150 BKN250=



000
FTUS42 KMLB 311120
TAFSFB
TAF
KSFB 311120Z 3112/0112 19005KT P6SM FEW025 SCT150 BKN250
     FM311400 22009KT P6SM SCT025 SCT120 BKN250
     FM311800 23011KT P6SM VCTS SCT040CB BKN120 BKN250
      TEMPO 3119/3121 3SM TSRA BKN035CB
     FM010000 21006KT P6SM VCSH FEW025 BKN150 BKN250=



000
FTUS42 KMLB 311120
TAFVRB
TAF
KVRB 311120Z 3112/0112 20004KT P6SM SCT250
     FM311400 22010KT P6SM SCT020 SCT120 SCT250
     FM311800 20010KT P6SM VCTS SCT040CB BKN070 BKN120
      TEMPO 3119/3121 3SM TSRA BKN035CB
     FM010000 19006KT P6SM VCSH FEW025 BKN150 BKN250=



000
FTUS42 KMLB 311120
TAFMCO
TAF
KMCO 311120Z 3112/0112 19005KT P6SM FEW025 SCT150 BKN250
     FM311400 22009KT P6SM SCT025 SCT120 BKN250
     FM311800 23012KT P6SM VCTS SCT040CB BKN120 BKN250
      TEMPO 3119/3121 3SM TSRA BKN035CB
     FM010000 21006KT P6SM VCSH FEW025 BKN150 BKN250=



000
FTUS42 KMLB 311120
TAFDAB
TAF
KDAB 311120Z 3112/0112 20005KT P6SM FEW025 SCT150 BKN250
     FM311500 22008KT P6SM SCT025 SCT120 SCT250
     FM311800 23010KT P6SM VCTS SCT040CB SCT120 BKN250
      TEMPO 3119/3121 3SM TSRA BKN035CB
     FM010000 21006KT P6SM VCSH FEW025 BKN150 BKN250=



000
FTUS42 KMLB 310858 AAA
TAFMCO
TAF AMD
KMCO 310858Z 3109/0106 20003KT P6SM FEW025 SCT040 BKN150
     FM311400 22009KT P6SM SCT025 SCT120 BKN250
     FM311800 23012KT P6SM VCTS SCT040CB BKN120 BKN250
     FM010000 21006KT P6SM VCSH FEW025 BKN150 BKN250=



000
FTUS42 KMLB 310858 AAA
TAFMCO
TAF AMD
KMCO 310858Z 3109/0106 20003KT P6SM FEW025 SCT040 BKN150
     FM311400 22009KT P6SM SCT025 SCT120 BKN250
     FM311800 23012KT P6SM VCTS SCT040CB BKN120 BKN250
     FM010000 21006KT P6SM VCSH FEW025 BKN150 BKN250=



000
FTUS42 KMLB 310521
TAFMLB
TAF
KMLB 310521Z 3106/0106 22004KT P6SM SCT150 BKN250
     FM311400 22010KT P6SM SCT020 SCT120 SCT250
     FM311800 23010KT P6SM VCTS SCT040CB BKN070 BKN120
     FM010000 19006KT P6SM VCSH FEW025 BKN150 BKN250=



000
FTUS42 KMLB 310521
TAFSFB
TAF
KSFB 310521Z 3106/0106 22004KT P6SM SCT150 BKN250
     FM311400 22009KT P6SM SCT025 SCT120 BKN250
     FM311800 23011KT P6SM VCTS SCT040CB BKN120 BKN250
     FM010000 21006KT P6SM VCSH FEW025 BKN150 BKN250=



000
FTUS42 KMLB 310521
TAFMCO
TAF
KMCO 310521Z 3106/0106 20004KT P6SM SCT150 BKN250
     FM311400 22009KT P6SM SCT025 SCT120 BKN250
     FM311800 23012KT P6SM VCTS SCT040CB BKN120 BKN250
     FM010000 21006KT P6SM VCSH FEW025 BKN150 BKN250=



000
FTUS42 KMLB 310521
TAFDAB
TAF
KDAB 310521Z 3106/0106 21005KT P6SM FEW020 SCT150 BKN250
     FM311500 22008KT P6SM SCT025 SCT120 SCT250
     FM311800 23010KT P6SM VCTS SCT040CB SCT120 BKN250
     FM010000 21006KT P6SM VCSH FEW025 BKN150 BKN250=



000
FTUS42 KMLB 310521
TAFVRB
TAF
KVRB 310521Z 3106/0106 22004KT P6SM SCT150 BKN250
     FM311400 22010KT P6SM SCT020 SCT120 SCT250
     FM311800 20010KT P6SM VCTS SCT040CB BKN070 BKN120
     FM010000 19006KT P6SM VCSH FEW025 BKN150 BKN250=



000
FTUS42 KMLB 310521
TAFVRB
TAF
KVRB 310521Z 3106/0106 22004KT P6SM SCT150 BKN250
     FM311400 22010KT P6SM SCT020 SCT120 SCT250
     FM311800 20010KT P6SM VCTS SCT040CB BKN070 BKN120
     FM010000 19006KT P6SM VCSH FEW025 BKN150 BKN250=



000
FTUS42 KMLB 310521
TAFSFB
TAF
KSFB 310521Z 3106/0106 22004KT P6SM SCT150 BKN250
     FM311400 22009KT P6SM SCT025 SCT120 BKN250
     FM311800 23011KT P6SM VCTS SCT040CB BKN120 BKN250
     FM010000 21006KT P6SM VCSH FEW025 BKN150 BKN250=



000
FTUS42 KMLB 310521
TAFMLB
TAF
KMLB 310521Z 3106/0106 22004KT P6SM SCT150 BKN250
     FM311400 22010KT P6SM SCT020 SCT120 SCT250
     FM311800 23010KT P6SM VCTS SCT040CB BKN070 BKN120
     FM010000 19006KT P6SM VCSH FEW025 BKN150 BKN250=



000
FTUS42 KMLB 310521
TAFMCO
TAF
KMCO 310521Z 3106/0106 20004KT P6SM SCT150 BKN250
     FM311400 22009KT P6SM SCT025 SCT120 BKN250
     FM311800 23012KT P6SM VCTS SCT040CB BKN120 BKN250
     FM010000 21006KT P6SM VCSH FEW025 BKN150 BKN250=



000
FTUS42 KMLB 310521
TAFDAB
TAF
KDAB 310521Z 3106/0106 21005KT P6SM FEW020 SCT150 BKN250
     FM311500 22008KT P6SM SCT025 SCT120 SCT250
     FM311800 23010KT P6SM VCTS SCT040CB SCT120 BKN250
     FM010000 21006KT P6SM VCSH FEW025 BKN150 BKN250=



000
FTUS42 KMLB 310257 AAA
TAFMCO
TAF AMD
KMCO 310257Z 3103/3124 20004KT P6SM FEW025 BKN150 BKN250
     FM311400 22009KT P6SM SCT025 SCT120 BKN250
     FM311800 23011KT P6SM VCTS SCT040CB BKN120 BKN250=



000
FTUS42 KMLB 310257 AAA
TAFMCO
TAF AMD
KMCO 310257Z 3103/3124 20004KT P6SM FEW025 BKN150 BKN250
     FM311400 22009KT P6SM SCT025 SCT120 BKN250
     FM311800 23011KT P6SM VCTS SCT040CB BKN120 BKN250=



000
FTUS42 KMLB 302340
TAFMCO
TAF
KMCO 302340Z 3100/3124 VRB03KT P6SM VCSH FEW070 BKN100 OVC150
     FM310400 20004KT P6SM SCT150 BKN250
     FM311400 22009KT P6SM SCT025 SCT120 BKN250
     FM311800 23011KT P6SM VCTS SCT040CB BKN120 BKN250=



000
FTUS42 KMLB 302340
TAFSFB
TAF
KSFB 302340Z 3100/3124 21005KT P6SM VCSH FEW070 BKN100 BKN150
     FM310400 20004KT P6SM SCT150 BKN250
     FM311400 22009KT P6SM SCT025 SCT120 BKN250
     FM311800 23011KT P6SM VCTS SCT040CB BKN120 BKN250=



000
FTUS42 KMLB 302340
TAFMLB
TAF
KMLB 302340Z 3100/3124 21003KT P6SM VCSH SCT060 BKN070 OVC110
     FM310300 23004KT P6SM SCT150 BKN250
     FM311400 22010KT P6SM SCT020 SCT120 SCT250
     FM311800 23010KT P6SM VCTS SCT040CB BKN070 BKN120=



000
FTUS42 KMLB 302340
TAFDAB
TAF
KDAB 302340Z 3100/3124 20005KT P6SM VCSH SCT040 BKN100 BKN250
     FM311500 22008KT P6SM SCT025 SCT120 SCT250
     FM311800 23010KT P6SM VCTS SCT040CB SCT120 BKN250=



000
FTUS42 KMLB 302340
TAFVRB
TAF
KVRB 302340Z 3100/3124 23005KT P6SM VCSH FEW080 SCT090 SCT110
     FM310300 23004KT P6SM SCT150 BKN250
     FM311400 22010KT P6SM SCT020 SCT120 SCT250
     FM311800 23010KT P6SM VCTS SCT040CB BKN070 BKN120=



    US Dept of Commerce
    National Oceanic and Atmospheric Administration
    National Weather Service
    1325 East West Highway
    Silver Spring, MD 20910
    Page Author: NWS Internet Services Team
Disclaimer
Information Quality
Credits
Glossary
Privacy Policy
Freedom of Information Act (FOIA)
About Us
Career Opportunities